sensor_id;sensor_type;location;lat;lon;timestamp;P1;durP1;ratioP1;P2;durP2;ratioP2
38972;SDS011;25333;50.762;4.470;2024-01-16T00:06:47;8.30;;;4.35;;
38972;SDS011;25333;50.762;4.470;2024-01-16T00:09:15;7.18;;;3.75;;
38972;SDS011;25333;50.762;4.470;2024-01-16T00:12:41;9.75;;;3.75;;
38972;SDS011;25333;50.762;4.470;2024-01-16T00:15:52;9.60;;;4.43;;
38972;SDS011;25333;50.762;4.470;2024-01-16T00:18:40;8.68;;;4.45;;
38972;SDS011;25333;50.762;4.470;2024-01-16T00:21:30;11.50;;;3.83;;
38972;SDS011;25333;50.762;4.470;2024-01-16T00:25:09;11.73;;;4.18;;
38972;SDS011;25333;50.762;4.470;2024-01-16T00:31:28;9.73;;;4.50;;
38972;SDS011;25333;50.762;4.470;2024-01-16T00:36:53;11.48;;;4.57;;
38972;SDS011;25333;50.762;4.470;2024-01-16T00:43:06;9.07;;;3.50;;
38972;SDS011;25333;50.762;4.470;2024-01-16T00:49:51;7.43;;;3.55;;
38972;SDS011;25333;50.762;4.470;2024-01-16T00:56:10;8.07;;;3.60;;
38972;SDS011;25333;50.762;4.470;2024-01-16T00:59:33;5.90;;;3.10;;
38972;SDS011;25333;50.762;4.470;2024-01-16T01:06:12;5.93;;;2.80;;
38972;SDS011;25333;50.762;4.470;2024-01-16T01:09:16;7.90;;;2.67;;
38972;SDS011;25333;50.762;4.470;2024-01-16T01:12:38;7.60;;;2.63;;
38972;SDS011;25333;50.762;4.470;2024-01-16T01:18:59;7.38;;;3.10;;
38972;SDS011;25333;50.762;4.470;2024-01-16T01:22:23;9.60;;;3.53;;
38972;SDS011;25333;50.762;4.470;2024-01-16T01:25:31;9.27;;;3.38;;
38972;SDS011;25333;50.762;4.470;2024-01-16T01:28:57;8.63;;;4.23;;
38972;SDS011;25333;50.762;4.470;2024-01-16T01:32:22;10.35;;;2.97;;
38972;SDS011;25333;50.762;4.470;2024-01-16T01:35:34;6.05;;;2.63;;
38972;SDS011;25333;50.762;4.470;2024-01-16T01:42:22;5.85;;;3.10;;
38972;SDS011;25333;50.762;4.470;2024-01-16T01:56:11;9.48;;;2.72;;
38972;SDS011;25333;50.762;4.470;2024-01-16T01:59:33;7.20;;;2.60;;
38972;SDS011;25333;50.762;4.470;2024-01-16T02:06:11;8.57;;;3.03;;
38972;SDS011;25333;50.762;4.470;2024-01-16T02:16:22;4.43;;;2.70;;
38972;SDS011;25333;50.762;4.470;2024-01-16T02:19:33;7.35;;;3.15;;
38972;SDS011;25333;50.762;4.470;2024-01-16T02:22:26;10.73;;;3.13;;
38972;SDS011;25333;50.762;4.470;2024-01-16T02:32:46;6.30;;;2.67;;
38972;SDS011;25333;50.762;4.470;2024-01-16T02:35:51;7.78;;;3.17;;
38972;SDS011;25333;50.762;4.470;2024-01-16T02:38:56;6.53;;;2.75;;
38972;SDS011;25333;50.762;4.470;2024-01-16T02:45:12;6.50;;;2.50;;
38972;SDS011;25333;50.762;4.470;2024-01-16T02:51:43;5.60;;;2.50;;
38972;SDS011;25333;50.762;4.470;2024-01-16T02:57:41;6.72;;;2.53;;
38972;SDS011;25333;50.762;4.470;2024-01-16T03:01:05;7.65;;;3.42;;
38972;SDS011;25333;50.762;4.470;2024-01-16T03:07:53;6.00;;;2.85;;
38972;SDS011;25333;50.762;4.470;2024-01-16T03:25:10;9.38;;;2.35;;
38972;SDS011;25333;50.762;4.470;2024-01-16T03:35:21;7.03;;;2.83;;
38972;SDS011;25333;50.762;4.470;2024-01-16T03:37:59;7.78;;;3.55;;
38972;SDS011;25333;50.762;4.470;2024-01-16T03:41:24;6.60;;;2.92;;
38972;SDS011;25333;50.762;4.470;2024-01-16T03:44:49;8.38;;;2.72;;
38972;SDS011;25333;50.762;4.470;2024-01-16T03:48:13;8.55;;;3.20;;
38972;SDS011;25333;50.762;4.470;2024-01-16T03:51:48;10.05;;;2.95;;
38972;SDS011;25333;50.762;4.470;2024-01-16T03:55:04;7.47;;;3.08;;
38972;SDS011;25333;50.762;4.470;2024-01-16T03:57:35;9.48;;;2.92;;
38972;SDS011;25333;50.762;4.470;2024-01-16T04:00:22;8.13;;;3.60;;
38972;SDS011;25333;50.762;4.470;2024-01-16T04:06:24;9.52;;;4.15;;
38972;SDS011;25333;50.762;4.470;2024-01-16T04:13:09;8.20;;;3.83;;
38972;SDS011;25333;50.762;4.470;2024-01-16T04:16:11;9.65;;;4.07;;
38972;SDS011;25333;50.762;4.470;2024-01-16T04:22:50;7.28;;;3.42;;
38972;SDS011;25333;50.762;4.470;2024-01-16T04:32:46;8.82;;;3.50;;
38972;SDS011;25333;50.762;4.470;2024-01-16T04:39:05;9.57;;;3.58;;
38972;SDS011;25333;50.762;4.470;2024-01-16T04:41:51;11.15;;;3.08;;
38972;SDS011;25333;50.762;4.470;2024-01-16T04:44:56;9.63;;;3.03;;
38972;SDS011;25333;50.762;4.470;2024-01-16T04:47:57;8.73;;;3.60;;
38972;SDS011;25333;50.762;4.470;2024-01-16T04:50:42;8.45;;;3.70;;
38972;SDS011;25333;50.762;4.470;2024-01-16T04:53:31;5.15;;;3.05;;
38972;SDS011;25333;50.762;4.470;2024-01-16T04:59:31;7.10;;;3.08;;
38972;SDS011;25333;50.762;4.470;2024-01-16T05:02:58;7.25;;;3.60;;
38972;SDS011;25333;50.762;4.470;2024-01-16T05:13:04;6.93;;;3.60;;
38972;SDS011;25333;50.762;4.470;2024-01-16T05:15:53;9.45;;;4.05;;
38972;SDS011;25333;50.762;4.470;2024-01-16T05:18:42;8.50;;;4.13;;
38972;SDS011;25333;50.762;4.470;2024-01-16T05:21:48;9.43;;;4.07;;
38972;SDS011;25333;50.762;4.470;2024-01-16T05:25:11;6.20;;;3.63;;
38972;SDS011;25333;50.762;4.470;2024-01-16T05:28:06;7.25;;;3.58;;
38972;SDS011;25333;50.762;4.470;2024-01-16T05:44:46;8.52;;;4.65;;
38972;SDS011;25333;50.762;4.470;2024-01-16T05:47:43;7.72;;;3.95;;
38972;SDS011;25333;50.762;4.470;2024-01-16T05:54:14;8.43;;;4.10;;
38972;SDS011;25333;50.762;4.470;2024-01-16T05:56:51;10.23;;;3.80;;
38972;SDS011;25333;50.762;4.470;2024-01-16T05:59:55;9.40;;;4.00;;
38972;SDS011;25333;50.762;4.470;2024-01-16T06:02:41;8.50;;;3.47;;
38972;SDS011;25333;50.762;4.470;2024-01-16T06:05:23;5.88;;;2.88;;
38972;SDS011;25333;50.762;4.470;2024-01-16T06:11:18;9.45;;;4.18;;
38972;SDS011;25333;50.762;4.470;2024-01-16T06:14:44;10.57;;;4.30;;
38972;SDS011;25333;50.762;4.470;2024-01-16T06:18:01;7.80;;;4.03;;
38972;SDS011;25333;50.762;4.470;2024-01-16T06:24:33;9.40;;;4.82;;
38972;SDS011;25333;50.762;4.470;2024-01-16T06:30:44;11.55;;;3.72;;
38972;SDS011;25333;50.762;4.470;2024-01-16T06:40:16;10.50;;;3.38;;
38972;SDS011;25333;50.762;4.470;2024-01-16T06:43:38;9.07;;;4.05;;
38972;SDS011;25333;50.762;4.470;2024-01-16T06:46:13;6.82;;;3.40;;
38972;SDS011;25333;50.762;4.470;2024-01-16T06:49:23;8.15;;;3.78;;
38972;SDS011;25333;50.762;4.470;2024-01-16T06:58:29;11.43;;;3.97;;
38972;SDS011;25333;50.762;4.470;2024-01-16T07:04:40;10.07;;;4.35;;
38972;SDS011;25333;50.762;4.470;2024-01-16T07:08:09;8.50;;;3.95;;
38972;SDS011;25333;50.762;4.470;2024-01-16T07:16:54;13.63;;;4.63;;
38972;SDS011;25333;50.762;4.470;2024-01-16T07:19:58;11.20;;;4.18;;
38972;SDS011;25333;50.762;4.470;2024-01-16T07:26:05;10.82;;;3.85;;
38972;SDS011;25333;50.762;4.470;2024-01-16T07:28:44;8.68;;;3.58;;
38972;SDS011;25333;50.762;4.470;2024-01-16T07:35:17;7.70;;;3.85;;
38972;SDS011;25333;50.762;4.470;2024-01-16T07:38:40;9.10;;;3.53;;
38972;SDS011;25333;50.762;4.470;2024-01-16T07:41:35;9.70;;;4.25;;
38972;SDS011;25333;50.762;4.470;2024-01-16T07:44:24;11.00;;;4.03;;
38972;SDS011;25333;50.762;4.470;2024-01-16T07:47:18;5.47;;;3.45;;
38972;SDS011;25333;50.762;4.470;2024-01-16T07:50:36;7.63;;;3.63;;
38972;SDS011;25333;50.762;4.470;2024-01-16T07:54:06;8.43;;;3.85;;
38972;SDS011;25333;50.762;4.470;2024-01-16T07:57:18;6.90;;;3.97;;
38972;SDS011;25333;50.762;4.470;2024-01-16T08:00:26;7.13;;;3.55;;
38972;SDS011;25333;50.762;4.470;2024-01-16T08:03:17;8.73;;;4.13;;
38972;SDS011;25333;50.762;4.470;2024-01-16T08:06:13;7.85;;;4.85;;
38972;SDS011;25333;50.762;4.470;2024-01-16T08:09:32;10.50;;;4.00;;
38972;SDS011;25333;50.762;4.470;2024-01-16T08:12:46;8.07;;;2.90;;
38972;SDS011;25333;50.762;4.470;2024-01-16T08:15:47;9.98;;;4.28;;
38972;SDS011;25333;50.762;4.470;2024-01-16T08:18:55;9.68;;;3.25;;
38972;SDS011;25333;50.762;4.470;2024-01-16T08:22:01;6.35;;;3.05;;
38972;SDS011;25333;50.762;4.470;2024-01-16T08:24:49;7.47;;;3.03;;
38972;SDS011;25333;50.762;4.470;2024-01-16T08:27:57;6.55;;;2.75;;
38972;SDS011;25333;50.762;4.470;2024-01-16T08:31:22;6.90;;;2.87;;
38972;SDS011;25333;50.762;4.470;2024-01-16T08:34:27;8.07;;;2.85;;
38972;SDS011;25333;50.762;4.470;2024-01-16T08:36:53;6.43;;;3.17;;
38972;SDS011;25333;50.762;4.470;2024-01-16T08:39:28;5.65;;;2.72;;
38972;SDS011;25333;50.762;4.470;2024-01-16T08:42:20;8.98;;;3.05;;
38972;SDS011;25333;50.762;4.470;2024-01-16T08:45:13;5.70;;;3.03;;
38972;SDS011;25333;50.762;4.470;2024-01-16T08:48:16;4.85;;;2.42;;
38972;SDS011;25333;50.762;4.470;2024-01-16T08:51:08;5.97;;;2.55;;
38972;SDS011;25333;50.762;4.470;2024-01-16T08:56:30;7.72;;;2.63;;
38972;SDS011;25333;50.762;4.470;2024-01-16T08:59:56;5.65;;;2.50;;
38972;SDS011;25333;50.762;4.470;2024-01-16T09:03:27;4.53;;;2.38;;
38972;SDS011;25333;50.762;4.470;2024-01-16T09:06:13;4.05;;;2.03;;
38972;SDS011;25333;50.762;4.470;2024-01-16T09:09:17;4.93;;;1.87;;
38972;SDS011;25333;50.762;4.470;2024-01-16T09:12:30;7.40;;;2.45;;
38972;SDS011;25333;50.762;4.470;2024-01-16T09:15:15;6.07;;;2.90;;
38972;SDS011;25333;50.762;4.470;2024-01-16T09:18:07;7.90;;;2.40;;
38972;SDS011;25333;50.762;4.470;2024-01-16T09:21:23;6.53;;;2.60;;
38972;SDS011;25333;50.762;4.470;2024-01-16T09:24:35;4.97;;;2.70;;
38972;SDS011;25333;50.762;4.470;2024-01-16T09:27:43;8.20;;;2.83;;
38972;SDS011;25333;50.762;4.470;2024-01-16T09:30:55;7.10;;;2.58;;
38972;SDS011;25333;50.762;4.470;2024-01-16T09:33:51;10.23;;;2.85;;
38972;SDS011;25333;50.762;4.470;2024-01-16T09:36:59;5.65;;;2.80;;
38972;SDS011;25333;50.762;4.470;2024-01-16T09:40:13;9.13;;;3.15;;
38972;SDS011;25333;50.762;4.470;2024-01-16T09:43:06;7.43;;;3.33;;
38972;SDS011;25333;50.762;4.470;2024-01-16T09:46:15;5.93;;;2.55;;
38972;SDS011;25333;50.762;4.470;2024-01-16T09:49:03;5.55;;;2.97;;
38972;SDS011;25333;50.762;4.470;2024-01-16T09:52:06;8.20;;;1.98;;
38972;SDS011;25333;50.762;4.470;2024-01-16T09:55:15;5.53;;;3.03;;
38972;SDS011;25333;50.762;4.470;2024-01-16T09:58:02;6.30;;;3.30;;
38972;SDS011;25333;50.762;4.470;2024-01-16T10:00:30;5.25;;;2.72;;
38972;SDS011;25333;50.762;4.470;2024-01-16T10:03:01;6.83;;;2.77;;
38972;SDS011;25333;50.762;4.470;2024-01-16T10:05:27;5.63;;;2.80;;
38972;SDS011;25333;50.762;4.470;2024-01-16T10:07:55;3.80;;;2.42;;
38972;SDS011;25333;50.762;4.470;2024-01-16T10:10:22;4.90;;;2.58;;
38972;SDS011;25333;50.762;4.470;2024-01-16T10:12:48;8.18;;;2.97;;
38972;SDS011;25333;50.762;4.470;2024-01-16T10:15:15;8.70;;;2.75;;
38972;SDS011;25333;50.762;4.470;2024-01-16T10:17:42;7.13;;;3.25;;
38972;SDS011;25333;50.762;4.470;2024-01-16T10:20:10;7.00;;;2.97;;
38972;SDS011;25333;50.762;4.470;2024-01-16T10:22:42;8.43;;;3.22;;
38972;SDS011;25333;50.762;4.470;2024-01-16T10:25:17;6.50;;;3.08;;
38972;SDS011;25333;50.762;4.470;2024-01-16T10:27:45;6.63;;;2.67;;
38972;SDS011;25333;50.762;4.470;2024-01-16T10:30:11;10.70;;;3.20;;
38972;SDS011;25333;50.762;4.470;2024-01-16T10:32:38;7.90;;;2.88;;
38972;SDS011;25333;50.762;4.470;2024-01-16T10:35:12;9.05;;;3.72;;
38972;SDS011;25333;50.762;4.470;2024-01-16T10:40:15;6.45;;;2.95;;
38972;SDS011;25333;50.762;4.470;2024-01-16T10:42:44;7.07;;;2.92;;
38972;SDS011;25333;50.762;4.470;2024-01-16T10:45:17;9.32;;;3.72;;
38972;SDS011;25333;50.762;4.470;2024-01-16T10:47:54;8.52;;;3.13;;
38972;SDS011;25333;50.762;4.470;2024-01-16T10:50:34;7.13;;;2.75;;
38972;SDS011;25333;50.762;4.470;2024-01-16T10:53:18;7.78;;;3.63;;
38972;SDS011;25333;50.762;4.470;2024-01-16T10:56:28;4.88;;;3.05;;
38972;SDS011;25333;50.762;4.470;2024-01-16T12:57:16;6.47;;;2.17;;
38972;SDS011;25333;50.762;4.470;2024-01-16T13:00:49;8.73;;;2.70;;
38972;SDS011;25333;50.762;4.470;2024-01-16T13:10:09;5.70;;;2.08;;
38972;SDS011;25333;50.762;4.470;2024-01-16T13:26:23;3.37;;;1.43;;
38972;SDS011;25333;50.762;4.470;2024-01-16T13:29:59;4.00;;;1.40;;
38972;SDS011;25333;50.762;4.470;2024-01-16T13:33:03;5.85;;;1.70;;
38972;SDS011;25333;50.762;4.470;2024-01-16T13:38:50;8.48;;;2.47;;
38972;SDS011;25333;50.762;4.470;2024-01-16T13:42:09;5.05;;;1.50;;
38972;SDS011;25333;50.762;4.470;2024-01-16T13:47:49;4.72;;;2.05;;
38972;SDS011;25333;50.762;4.470;2024-01-16T13:51:25;6.10;;;2.35;;
38972;SDS011;25333;50.762;4.470;2024-01-16T13:54:53;6.22;;;2.55;;
38972;SDS011;25333;50.762;4.470;2024-01-16T13:58:22;3.13;;;1.90;;
38972;SDS011;25333;50.762;4.470;2024-01-16T14:16:08;3.20;;;1.90;;
38972;SDS011;25333;50.762;4.470;2024-01-16T14:19:12;4.05;;;2.33;;
38972;SDS011;25333;50.762;4.470;2024-01-16T14:22:33;6.47;;;2.03;;
38972;SDS011;25333;50.762;4.470;2024-01-16T14:25:10;4.00;;;1.67;;
38972;SDS011;25333;50.762;4.470;2024-01-16T14:28:05;4.68;;;2.08;;
38972;SDS011;25333;50.762;4.470;2024-01-16T14:31:19;5.25;;;2.60;;
38972;SDS011;25333;50.762;4.470;2024-01-16T14:37:06;4.18;;;2.03;;
38972;SDS011;25333;50.762;4.470;2024-01-16T14:40:13;4.38;;;1.80;;
38972;SDS011;25333;50.762;4.470;2024-01-16T14:43:38;5.22;;;2.08;;
38972;SDS011;25333;50.762;4.470;2024-01-16T14:46:32;3.50;;;1.77;;
38972;SDS011;25333;50.762;4.470;2024-01-16T14:49:45;7.10;;;2.45;;
38972;SDS011;25333;50.762;4.470;2024-01-16T14:52:30;5.30;;;2.50;;
38972;SDS011;25333;50.762;4.470;2024-01-16T14:58:57;4.80;;;1.90;;
38972;SDS011;25333;50.762;4.470;2024-01-16T15:11:24;3.63;;;1.92;;
38972;SDS011;25333;50.762;4.470;2024-01-16T15:24:09;5.85;;;2.90;;
38972;SDS011;25333;50.762;4.470;2024-01-16T15:27:16;6.90;;;2.42;;
38972;SDS011;25333;50.762;4.470;2024-01-16T15:29:44;4.35;;;2.30;;
38972;SDS011;25333;50.762;4.470;2024-01-16T15:35:55;5.18;;;2.30;;
38972;SDS011;25333;50.762;4.470;2024-01-16T15:57:16;5.15;;;2.75;;
38972;SDS011;25333;50.762;4.470;2024-01-16T15:59:47;6.60;;;2.47;;
38972;SDS011;25333;50.762;4.470;2024-01-16T16:02:42;5.75;;;2.40;;
38972;SDS011;25333;50.762;4.470;2024-01-16T16:05:23;5.95;;;2.38;;
38972;SDS011;25333;50.762;4.470;2024-01-16T16:07:54;4.13;;;1.63;;
38972;SDS011;25333;50.762;4.470;2024-01-16T16:10:28;4.03;;;1.98;;
38972;SDS011;25333;50.762;4.470;2024-01-16T16:16:36;4.57;;;2.47;;
38972;SDS011;25333;50.762;4.470;2024-01-16T18:16:59;12.45;;;8.70;;
38972;SDS011;25333;50.762;4.470;2024-01-16T18:23:24;13.85;;;9.23;;
38972;SDS011;25333;50.762;4.470;2024-01-16T18:26:12;12.25;;;8.63;;
38972;SDS011;25333;50.762;4.470;2024-01-16T18:28:47;10.45;;;8.55;;
38972;SDS011;25333;50.762;4.470;2024-01-16T18:35:14;13.48;;;9.27;;
38972;SDS011;25333;50.762;4.470;2024-01-16T18:37:42;13.73;;;9.43;;
38972;SDS011;25333;50.762;4.470;2024-01-16T18:40:43;12.20;;;8.50;;
38972;SDS011;25333;50.762;4.470;2024-01-16T18:43:57;10.77;;;8.00;;
38972;SDS011;25333;50.762;4.470;2024-01-16T18:46:50;15.95;;;9.10;;
38972;SDS011;25333;50.762;4.470;2024-01-16T18:53:08;13.07;;;8.95;;
38972;SDS011;25333;50.762;4.470;2024-01-16T18:56:12;10.60;;;7.97;;
38972;SDS011;25333;50.762;4.470;2024-01-16T18:58:56;11.07;;;7.22;;
38972;SDS011;25333;50.762;4.470;2024-01-16T19:02:07;12.07;;;7.68;;
38972;SDS011;25333;50.762;4.470;2024-01-16T19:05:18;10.82;;;8.20;;
38972;SDS011;25333;50.762;4.470;2024-01-16T21:53:43;10.95;;;7.07;;
38972;SDS011;25333;50.762;4.470;2024-01-16T21:56:58;12.80;;;7.22;;
38972;SDS011;25333;50.762;4.470;2024-01-16T21:59:46;10.02;;;6.80;;
38972;SDS011;25333;50.762;4.470;2024-01-16T22:18:02;12.50;;;7.00;;
38972;SDS011;25333;50.762;4.470;2024-01-16T22:21:01;14.52;;;7.28;;
38972;SDS011;25333;50.762;4.470;2024-01-16T22:23:52;14.00;;;7.07;;
38972;SDS011;25333;50.762;4.470;2024-01-16T22:26:28;11.73;;;7.03;;
38972;SDS011;25333;50.762;4.470;2024-01-16T22:32:00;14.23;;;7.43;;
38972;SDS011;25333;50.762;4.470;2024-01-16T22:34:28;10.98;;;7.50;;
38972;SDS011;25333;50.762;4.470;2024-01-16T22:36:57;11.88;;;7.32;;
38972;SDS011;25333;50.762;4.470;2024-01-16T22:39:33;10.70;;;6.90;;
38972;SDS011;25333;50.762;4.470;2024-01-16T22:42:28;11.80;;;8.05;;
38972;SDS011;25333;50.762;4.470;2024-01-16T22:45:32;9.13;;;7.32;;
38972;SDS011;25333;50.762;4.470;2024-01-16T22:47:58;11.05;;;7.75;;
38972;SDS011;25333;50.762;4.470;2024-01-16T22:50:38;13.10;;;7.80;;
38972;SDS011;25333;50.762;4.470;2024-01-16T22:53:14;11.40;;;7.80;;
38972;SDS011;25333;50.762;4.470;2024-01-16T22:55:57;13.75;;;7.75;;
38972;SDS011;25333;50.762;4.470;2024-01-16T22:58:36;8.30;;;6.90;;
38972;SDS011;25333;50.762;4.470;2024-01-16T23:01:08;12.90;;;8.07;;
38972;SDS011;25333;50.762;4.470;2024-01-16T23:04:10;12.63;;;7.85;;
38972;SDS011;25333;50.762;4.470;2024-01-16T23:10:22;9.15;;;6.93;;
38972;SDS011;25333;50.762;4.470;2024-01-16T23:13:31;10.95;;;8.00;;
38972;SDS011;25333;50.762;4.470;2024-01-16T23:16:30;13.35;;;7.43;;
38972;SDS011;25333;50.762;4.470;2024-01-16T23:26:20;14.52;;;7.57;;
38972;SDS011;25333;50.762;4.470;2024-01-16T23:29:08;10.32;;;7.63;;
38972;SDS011;25333;50.762;4.470;2024-01-16T23:32:07;13.32;;;7.93;;
38972;SDS011;25333;50.762;4.470;2024-01-16T23:35:13;12.20;;;8.10;;
38972;SDS011;25333;50.762;4.470;2024-01-16T23:38:33;13.45;;;7.82;;
38972;SDS011;25333;50.762;4.470;2024-01-16T23:41:22;12.05;;;7.97;;
38972;SDS011;25333;50.762;4.470;2024-01-16T23:44:09;11.77;;;6.80;;
38972;SDS011;25333;50.762;4.470;2024-01-16T23:47:10;12.27;;;8.18;;
38972;SDS011;25333;50.762;4.470;2024-01-16T23:53:32;10.65;;;7.78;;
38972;SDS011;25333;50.762;4.470;2024-01-16T23:56:28;15.18;;;7.10;;
